createdAt,value
2018-05-21T07:19:00.143Z,5408.00
2018-05-21T07:19:59.996Z,5484.00
2018-05-21T07:20:58.045Z,5476.00
2018-05-21T07:21:58.272Z,5484.00
2018-05-21T07:22:58.591Z,5504.00
2018-05-21T07:23:58.473Z,5520.00
2018-05-21T07:24:58.742Z,5536.00
2018-05-21T07:25:58.902Z,5556.00
2018-05-21T07:26:59.253Z,5564.00
2018-05-21T07:27:59.523Z,5584.00
2018-05-21T07:28:59.574Z,5620.00
2018-05-21T07:29:59.662Z,5628.00
2018-05-21T07:30:59.878Z,5672.00
2018-05-21T07:31:59.982Z,5676.00
2018-05-21T07:33:00.105Z,5716.00
2018-05-21T07:34:00.492Z,5720.00
2018-05-21T07:35:00.566Z,5744.00
2018-05-21T07:36:01.162Z,5764.00
2018-05-21T07:37:00.888Z,5792.00
2018-05-21T07:38:01.150Z,5808.00
2018-05-21T07:39:01.227Z,5828.00
2018-05-21T07:40:01.456Z,5848.00
2018-05-21T07:41:01.852Z,5864.00
2018-05-21T07:42:01.740Z,5888.00
2018-05-21T07:43:01.910Z,5912.00
2018-05-21T07:44:02.095Z,5940.00
2018-05-21T07:45:02.215Z,5936.00
2018-05-21T07:46:02.431Z,5964.00
2018-05-21T07:47:02.753Z,5976.00
2018-05-21T07:48:03.137Z,5988.00
2018-05-21T07:49:05.227Z,6000.00
2018-05-21T07:50:18.311Z,6036.00
2018-05-21T07:51:06.007Z,6048.00
2018-05-21T07:52:06.159Z,6112.00
2018-05-21T07:53:07.606Z,6080.00
2018-05-21T07:54:07.953Z,6108.00
2018-05-21T07:55:12.611Z,6128.00
2018-05-21T07:56:29.266Z,6148.00
2018-05-21T07:57:06.744Z,6180.00
2018-05-21T08:39:58.026Z,7200.00
2018-05-21T09:04:21.451Z,8048.00
2018-05-21T09:05:07.833Z,8260.00
2018-05-21T09:06:06.757Z,8248.00
2018-05-21T09:07:08.385Z,8256.00
2018-05-21T09:08:06.952Z,8312.00
2018-05-21T09:09:09.099Z,8348.00
2018-05-21T09:10:08.756Z,8372.00
2018-05-21T09:11:08.194Z,8384.00
2018-05-21T09:12:09.365Z,8408.00
2018-05-21T09:13:06.328Z,8448.00
2018-05-21T09:14:05.729Z,8532.00
2018-05-21T09:15:05.333Z,8556.00
2018-05-21T09:16:05.622Z,8620.00
2018-05-21T09:17:05.921Z,8652.00
2018-05-21T09:18:06.011Z,8704.00
2018-05-21T09:19:05.965Z,8748.00
2018-05-21T09:20:06.594Z,8744.00
2018-05-21T09:21:06.325Z,8824.00
2018-05-21T09:22:06.822Z,8832.00
2018-05-21T09:23:07.293Z,8824.00
2018-05-21T09:24:08.136Z,8856.00
2018-05-21T09:25:07.875Z,8908.00
2018-05-21T09:26:11.531Z,8936.00
2018-05-21T09:29:08.122Z,9076.00
2018-05-21T09:30:08.943Z,9132.00
2018-05-21T09:31:08.663Z,9144.00
2018-05-21T09:32:08.553Z,9184.00
2018-05-21T09:33:08.652Z,9240.00
2018-05-21T09:34:08.902Z,9264.00
2018-05-21T09:35:08.885Z,9308.00
2018-05-21T09:36:09.041Z,9356.00
2018-05-21T09:37:09.255Z,9376.00
2018-05-21T09:38:10.123Z,9436.00
2018-05-21T09:39:09.486Z,9464.00
2018-05-21T09:40:10.246Z,9572.00
2018-05-21T09:41:10.440Z,9816.00
2018-05-21T09:42:10.321Z,12516.00
2018-05-21T09:43:10.591Z,17824.00
2018-05-21T09:44:10.766Z,22560.00
2018-05-21T09:45:11.782Z,25760.00
2018-05-21T09:46:11.271Z,26272.00
2018-05-21T09:47:13.987Z,26848.00
2018-05-21T09:48:11.265Z,26944.00
2018-05-21T09:49:16.207Z,25664.00
2018-05-21T09:50:11.710Z,22528.00
2018-05-21T09:51:12.887Z,19680.00
2018-05-21T09:52:12.459Z,23008.00
2018-05-21T09:53:14.540Z,27424.00
2018-05-21T09:54:12.616Z,30144.00
2018-05-21T09:55:12.875Z,31552.00
2018-05-21T09:56:14.139Z,31360.00
2018-05-21T09:57:12.770Z,31360.00
2018-05-21T09:58:12.932Z,32896.00
2018-05-21T09:59:13.116Z,33312.00
2018-05-21T10:00:13.289Z,32032.00
2018-05-21T10:01:13.513Z,33248.00
2018-05-21T10:02:13.721Z,35744.00
2018-05-21T10:03:13.901Z,35744.00
2018-05-21T10:04:13.886Z,35584.00
2018-05-21T10:05:14.078Z,35776.00
2018-05-21T10:06:14.289Z,35616.00
2018-05-21T10:07:14.393Z,35360.00
2018-05-21T10:08:14.760Z,36416.00
2018-05-21T10:09:15.482Z,37856.00
2018-05-21T10:10:15.285Z,38208.00
2018-05-21T10:11:15.150Z,38624.00
2018-05-21T10:12:15.298Z,38272.00
2018-05-21T10:13:16.044Z,36512.00
2018-05-21T10:14:15.663Z,36160.00
2018-05-21T10:15:15.957Z,36928.00
2018-05-21T10:16:16.121Z,38272.00
2018-05-21T10:17:16.237Z,39872.00
2018-05-21T10:19:16.839Z,41600.00
2018-05-21T10:20:16.668Z,41632.00
2018-05-21T10:21:16.941Z,41856.00
2018-05-21T10:22:17.051Z,43328.00
2018-05-21T10:23:17.286Z,44512.00
2018-05-21T10:24:17.584Z,43744.00
2018-05-21T10:25:17.934Z,44064.00
2018-05-21T10:26:17.980Z,44640.00
2018-05-21T10:27:18.046Z,44672.00
2018-05-21T10:28:18.312Z,45088.00
2018-05-21T10:29:18.500Z,44928.00
2018-05-21T10:30:18.683Z,44864.00
2018-05-21T10:31:18.765Z,46784.00
2018-05-21T10:32:19.067Z,48672.00
2018-05-21T10:33:19.187Z,48704.00
2018-05-21T10:34:19.462Z,48352.00
2018-05-21T10:35:20.907Z,48640.00
2018-05-21T10:36:24.462Z,46784.00
2018-05-21T10:37:21.737Z,46400.00
2018-05-21T10:38:20.288Z,47296.00
2018-05-21T10:39:20.517Z,47968.00
2018-05-21T10:40:21.390Z,47776.00
2018-05-21T10:41:20.947Z,48192.00
2018-05-21T10:42:21.001Z,49632.00
2018-05-21T10:43:21.534Z,49792.00
2018-05-21T10:44:21.473Z,50336.00
2018-05-21T10:45:21.547Z,50912.00
2018-05-21T10:46:21.537Z,49984.00
2018-05-21T10:47:21.838Z,50080.00
2018-05-21T10:49:22.092Z,53888.00
2018-05-21T10:50:22.501Z,53728.00
2018-05-21T10:51:22.480Z,54272.00
2018-05-21T10:52:22.676Z,54176.00
2018-05-21T10:53:22.783Z,54688.00
2018-05-21T10:54:23.765Z,54912.00
2018-05-21T10:55:23.228Z,55104.00
2018-05-21T10:56:23.471Z,55840.00
2018-05-21T10:57:24.652Z,55328.00
2018-05-21T10:58:23.894Z,54016.00
2018-05-21T10:59:23.903Z,53056.00
2018-05-21T11:00:24.217Z,54944.00
2018-05-21T11:01:24.286Z,56928.00
2018-05-21T11:02:24.405Z,58336.00
2018-05-21T11:03:24.922Z,58336.00
2018-05-21T11:04:25.252Z,58592.00
2018-05-21T11:05:24.920Z,58944.00
2018-05-21T11:06:25.039Z,59808.00
2018-05-21T11:07:25.343Z,61120.00
2018-05-21T11:08:25.774Z,60768.00
2018-05-21T11:09:25.783Z,58944.00
2018-05-21T11:11:31.258Z,61216.00
2018-05-21T11:12:27.100Z,61696.00
2018-05-21T11:13:27.812Z,61152.00
2018-05-21T11:14:27.327Z,60032.00
2018-05-21T11:15:26.936Z,58368.00
2018-05-21T11:16:27.344Z,58880.00
2018-05-21T11:17:27.507Z,60416.00
2018-05-21T11:18:27.677Z,60672.00
2018-05-21T11:19:27.617Z,61216.00
2018-05-21T11:20:29.053Z,62432.00
2018-05-21T11:21:28.063Z,63744.00
2018-05-21T11:22:28.226Z,62976.00
2018-05-21T11:23:28.466Z,62720.00
2018-05-21T11:24:29.355Z,63520.00
2018-05-21T11:25:29.607Z,64480.00
2018-05-21T11:26:29.048Z,65280.00
2018-05-21T11:27:29.384Z,65472.00
2018-05-21T11:28:29.479Z,64096.00
2018-05-21T11:29:30.179Z,62272.00
2018-05-21T11:30:29.787Z,62560.00
2018-05-21T11:31:29.903Z,63776.00
2018-05-21T11:32:31.173Z,64320.00
2018-05-21T11:33:30.246Z,63136.00
2018-05-21T11:34:30.357Z,60352.00
2018-05-21T11:35:30.631Z,59520.00
2018-05-21T11:36:30.882Z,60608.00
2018-05-21T11:37:30.941Z,62016.00
2018-05-21T11:38:31.159Z,62272.00
2018-05-21T11:39:31.373Z,64384.00
2018-05-21T11:40:31.493Z,63904.00
2018-05-21T11:41:31.693Z,58720.00
2018-05-21T11:42:31.920Z,63424.00
2018-05-21T11:43:32.027Z,63968.00
2018-05-21T11:44:32.233Z,64192.00
2018-05-21T11:45:32.418Z,64608.00
2018-05-21T11:46:32.755Z,64064.00
2018-05-21T11:47:32.683Z,64480.00
2018-05-21T11:48:32.869Z,64448.00
2018-05-21T11:49:33.066Z,66304.00
2018-05-21T11:50:33.302Z,66848.00
2018-05-21T11:51:33.391Z,67200.00
2018-05-21T11:52:33.894Z,66176.00
2018-05-21T11:53:33.739Z,65728.00
2018-05-21T11:54:33.930Z,65344.00
2018-05-21T11:55:35.092Z,65472.00
2018-05-21T11:56:34.256Z,65728.00
2018-05-21T11:57:34.501Z,65120.00
2018-05-21T11:58:34.660Z,64032.00
2018-05-21T11:59:34.873Z,62048.00
2018-05-21T12:00:34.996Z,61760.00
2018-05-21T12:01:35.244Z,64512.00
2018-05-21T12:02:35.534Z,64928.00
2018-05-21T12:03:35.553Z,62656.00
2018-05-21T12:04:35.803Z,62336.00
2018-05-21T12:05:35.879Z,66624.00
2018-05-21T12:06:36.043Z,67328.00
2018-05-21T12:07:36.654Z,67200.00
2018-05-21T12:08:48.380Z,65184.00
2018-05-21T12:09:42.689Z,66208.00
2018-05-21T12:10:37.334Z,69568.00
2018-05-21T12:11:37.412Z,70944.00
2018-05-21T12:12:37.142Z,70560.00
2018-05-21T12:13:37.407Z,65856.00
2018-05-21T12:14:37.493Z,62656.00
2018-05-21T12:15:37.617Z,63904.00
2018-05-21T12:16:37.921Z,66976.00
2018-05-21T12:17:38.137Z,66752.00
2018-05-21T12:18:38.354Z,65600.00
2018-05-21T12:19:38.545Z,65952.00
2018-05-21T12:20:38.745Z,65760.00
2018-05-21T12:21:38.922Z,63872.00
2018-05-21T12:22:39.155Z,63520.00
2018-05-21T12:23:39.288Z,64704.00
2018-05-21T12:24:39.495Z,65184.00
2018-05-21T12:25:39.663Z,62816.00
2018-05-21T12:26:39.900Z,66048.00
2018-05-21T12:27:40.040Z,77600.00
2018-05-21T12:28:40.168Z,76608.00
2018-05-21T12:29:40.320Z,62112.00
2018-05-21T12:30:40.529Z,62784.00
2018-05-21T12:31:40.832Z,76480.00
2018-05-21T12:32:40.995Z,75808.00
2018-05-21T12:33:41.169Z,59360.00
2018-05-21T12:34:41.388Z,54528.00
2018-05-21T12:35:41.582Z,69216.00
2018-05-21T12:36:44.349Z,72512.00
2018-05-21T12:37:42.987Z,59232.00
2018-05-21T12:38:42.779Z,59104.00
2018-05-21T12:39:42.637Z,72032.00
2018-05-21T12:40:42.596Z,76064.00
2018-05-21T12:41:42.545Z,70688.00
2018-05-21T12:42:42.638Z,69184.00
2018-05-21T12:43:42.900Z,69888.00
2018-05-21T12:44:43.499Z,68896.00
2018-05-21T12:45:43.206Z,68320.00
2018-05-21T12:46:43.440Z,69120.00
2018-05-21T12:47:43.737Z,68800.00
2018-05-21T12:48:43.950Z,70080.00
2018-05-21T12:49:44.051Z,70496.00
2018-05-21T12:50:44.235Z,70656.00
2018-05-21T12:51:44.350Z,70976.00
2018-05-21T12:52:44.469Z,70496.00
2018-05-21T12:53:44.806Z,69536.00
2018-05-21T12:54:45.073Z,68832.00
2018-05-21T12:55:45.178Z,68160.00
2018-05-21T12:56:45.212Z,71104.00
2018-05-21T12:57:50.531Z,75200.00
2018-05-21T12:58:45.664Z,74720.00
2018-05-21T12:59:47.089Z,66976.00
2018-05-21T13:00:46.273Z,60160.00
2018-05-21T13:01:46.758Z,59296.00
2018-05-21T13:02:46.375Z,64160.00
2018-05-21T13:03:46.562Z,68896.00
2018-05-21T13:04:46.645Z,68352.00
2018-05-21T13:05:46.908Z,64416.00
2018-05-21T13:06:47.141Z,63296.00
2018-05-21T13:07:47.351Z,67776.00
2018-05-21T13:08:47.547Z,70592.00
2018-05-21T13:09:47.832Z,72128.00
2018-05-21T13:10:48.045Z,71904.00
2018-05-21T13:11:48.171Z,71584.00
2018-05-21T13:12:48.231Z,69824.00
2018-05-21T13:13:48.500Z,71808.00
2018-05-21T13:14:48.651Z,74304.00
2018-05-21T13:15:49.151Z,72448.00
2018-05-21T13:16:49.896Z,69280.00
2018-05-21T13:17:49.107Z,70560.00
2018-05-21T13:18:49.464Z,73440.00
2018-05-21T13:19:49.564Z,72672.00
2018-05-21T13:20:49.772Z,69440.00
2018-05-21T13:21:49.838Z,68896.00
2018-05-21T13:22:50.196Z,70432.00
2018-05-21T13:23:50.346Z,72480.00
2018-05-21T13:24:50.526Z,73536.00
2018-05-21T13:25:50.820Z,71104.00
2018-05-21T13:26:50.983Z,67744.00
2018-05-21T13:27:51.107Z,68192.00
2018-05-21T13:28:52.120Z,72000.00
2018-05-21T13:29:51.458Z,74784.00
2018-05-21T13:30:51.624Z,74080.00
2018-05-21T13:31:51.807Z,71584.00
2018-05-21T13:32:52.166Z,68352.00
2018-05-21T13:33:52.425Z,67840.00
2018-05-21T13:34:52.366Z,70848.00
2018-05-21T13:35:52.632Z,72928.00
2018-05-21T13:36:52.856Z,71712.00
2018-05-21T13:37:52.968Z,69984.00
2018-05-21T13:38:53.205Z,65504.00
2018-05-21T13:39:53.340Z,63936.00
2018-05-21T13:40:54.143Z,64096.00
2018-05-21T13:41:53.722Z,66208.00
2018-05-21T13:42:53.923Z,69344.00
2018-05-21T13:43:53.976Z,69280.00
2018-05-21T13:44:54.212Z,69120.00
2018-05-21T13:45:54.298Z,70112.00
2018-05-21T13:46:54.618Z,69568.00
2018-05-21T13:47:54.915Z,68832.00
2018-05-21T13:48:55.054Z,69280.00
2018-05-21T13:49:55.119Z,69440.00
2018-05-21T13:50:55.223Z,68768.00
2018-05-21T13:51:55.406Z,68544.00
2018-05-21T13:52:55.780Z,68576.00
2018-05-21T13:53:55.899Z,67456.00
2018-05-21T13:54:55.930Z,66880.00
2018-05-21T13:55:56.160Z,68000.00
2018-05-21T13:56:56.359Z,69728.00
2018-05-21T13:57:56.469Z,68416.00
2018-05-21T13:58:56.838Z,62336.00
2018-05-21T13:59:57.013Z,56960.00
2018-05-21T14:00:57.028Z,60128.00
2018-05-21T14:01:57.243Z,70688.00
2018-05-21T14:03:02.637Z,76992.00
2018-05-21T14:03:57.546Z,73088.00
2018-05-21T14:04:57.668Z,60128.00
2018-05-21T14:05:57.880Z,52512.00
2018-05-21T14:06:58.205Z,56064.00
2018-05-21T14:07:58.260Z,66912.00
2018-05-21T14:08:58.466Z,73120.00
2018-05-21T14:09:58.665Z,69952.00
2018-05-21T14:10:58.938Z,61056.00
2018-05-21T14:11:59.049Z,55328.00
2018-05-21T14:13:01.277Z,57792.00
2018-05-21T14:13:59.485Z,64800.00
2018-05-21T14:14:59.618Z,69920.00
2018-05-21T14:15:59.864Z,68928.00
2018-05-21T14:17:00.065Z,66080.00
2018-05-21T14:18:00.220Z,64064.00
2018-05-21T14:19:00.506Z,64896.00
2018-05-21T14:20:00.629Z,64512.00
2018-05-21T14:21:00.639Z,63456.00
2018-05-21T14:22:01.173Z,65824.00
2018-05-21T14:23:01.679Z,67104.00
2018-05-21T14:24:01.399Z,62432.00
2018-05-21T14:25:01.538Z,58624.00
2018-05-21T14:26:01.700Z,59392.00
2018-05-21T14:27:01.767Z,62016.00
2018-05-21T14:28:02.054Z,61920.00
2018-05-21T14:29:02.145Z,60544.00
2018-05-21T14:30:02.345Z,60096.00
2018-05-21T14:31:02.552Z,60384.00
2018-05-21T14:32:02.718Z,61216.00
2018-05-21T14:33:03.466Z,60576.00
2018-05-21T14:34:04.155Z,57920.00
2018-05-21T14:35:05.759Z,55936.00
2018-05-21T14:36:03.442Z,56288.00
2018-05-21T14:37:04.485Z,58176.00
2018-05-21T14:38:04.039Z,60096.00
2018-05-21T14:39:03.940Z,59008.00
2018-05-21T14:40:04.084Z,57920.00
2018-05-21T14:41:04.251Z,56800.00
2018-05-21T14:42:04.493Z,56896.00
2018-05-21T14:43:04.744Z,56128.00
2018-05-21T14:44:04.926Z,58784.00
2018-05-21T14:45:06.004Z,59200.00
2018-05-21T14:46:05.217Z,56032.00
2018-05-21T14:47:05.476Z,53280.00
2018-05-21T14:48:05.691Z,55808.00
2018-05-21T14:49:05.815Z,58400.00
2018-05-21T14:50:05.977Z,56992.00
2018-05-21T14:51:06.223Z,52128.00
2018-05-21T14:52:06.314Z,48064.00
2018-05-21T14:53:06.517Z,50496.00
2018-05-21T14:54:06.643Z,52992.00
2018-05-21T14:55:07.807Z,52896.00
2018-05-21T14:56:07.259Z,50112.00
2018-05-21T14:57:07.232Z,49408.00
2018-05-21T14:59:08.358Z,53664.00
2018-05-21T15:00:07.792Z,50816.00
2018-05-21T15:01:08.146Z,47680.00
2018-05-21T15:02:08.235Z,39168.00
2018-05-21T15:03:08.456Z,36064.00
2018-05-21T15:04:08.591Z,37952.00
2018-05-21T15:05:08.830Z,35776.00
2018-05-21T15:06:09.486Z,39936.00
2018-05-21T15:07:09.409Z,46816.00
2018-05-21T15:09:09.509Z,50624.00
2018-05-21T15:10:09.810Z,46944.00
2018-05-21T15:11:11.078Z,46176.00
2018-05-21T15:12:15.596Z,44672.00
2018-05-21T15:13:14.511Z,45344.00
2018-05-21T15:14:10.278Z,47168.00
2018-05-21T15:15:10.785Z,49952.00
2018-05-21T15:16:10.884Z,46592.00
2018-05-21T15:17:10.761Z,41760.00
2018-05-21T15:18:10.853Z,44384.00
2018-05-21T15:19:11.380Z,48256.00
2018-05-21T15:20:11.823Z,47552.00
2018-05-21T15:21:11.700Z,41248.00
2018-05-21T15:22:11.796Z,38048.00
2018-05-21T15:23:11.851Z,36768.00
2018-05-21T15:24:12.381Z,36224.00
2018-05-21T15:25:12.604Z,30400.00
2018-05-21T15:26:13.123Z,31008.00
2018-05-21T15:27:12.690Z,31072.00
2018-05-21T15:28:12.844Z,29760.00
2018-05-21T15:29:13.333Z,28576.00
2018-05-21T15:30:13.219Z,31360.00
2018-05-21T15:31:13.485Z,34720.00
2018-05-21T15:32:14.507Z,34496.00
2018-05-21T15:33:13.779Z,37120.00
2018-05-21T15:34:13.999Z,37088.00
2018-05-21T15:35:14.055Z,37472.00
2018-05-21T15:36:14.392Z,36768.00
2018-05-21T15:37:14.480Z,36352.00
2018-05-21T15:38:14.608Z,37152.00
2018-05-21T15:39:14.964Z,36096.00
2018-05-21T15:40:14.969Z,36864.00
2018-05-21T15:41:15.079Z,36448.00
2018-05-21T15:42:15.212Z,38304.00
2018-05-21T15:43:15.595Z,36192.00
2018-05-21T15:44:15.742Z,34944.00
2018-05-21T15:45:15.847Z,32224.00
2018-05-21T15:46:16.706Z,26240.00
2018-05-21T15:47:16.327Z,25056.00
2018-05-21T15:48:17.299Z,20896.00
2018-05-21T15:49:16.617Z,15872.00
2018-05-21T15:50:16.849Z,21216.00
2018-05-21T15:51:16.971Z,24832.00
2018-05-21T15:52:17.090Z,16640.00
2018-05-21T15:53:17.286Z,16512.00
2018-05-21T15:54:17.538Z,11948.00
2018-05-21T15:55:17.863Z,16544.00
2018-05-21T15:56:17.738Z,18944.00
2018-05-21T15:57:18.370Z,19936.00
2018-05-21T15:58:18.174Z,26048.00
2018-05-21T15:59:18.445Z,29248.00
2018-05-21T16:00:18.570Z,28992.00
2018-05-21T16:01:18.647Z,28000.00
2018-05-21T16:02:19.119Z,28320.00
2018-05-21T16:03:19.067Z,28864.00
2018-05-21T16:04:19.217Z,28192.00
2018-05-21T16:05:19.494Z,28928.00
2018-05-21T16:06:19.511Z,30592.00
2018-05-21T16:07:19.753Z,31488.00
2018-05-21T16:08:19.976Z,32768.00
2018-05-21T16:09:20.236Z,32320.00
2018-05-21T16:10:20.273Z,30304.00
2018-05-21T16:11:20.382Z,30592.00
2018-05-21T16:12:20.718Z,30656.00
2018-05-21T16:13:21.017Z,28576.00
2018-05-21T16:14:21.127Z,28288.00
2018-05-21T16:15:21.202Z,28384.00
2018-05-21T16:16:21.348Z,28448.00
2018-05-21T16:17:21.583Z,28384.00
2018-05-21T16:18:21.639Z,27296.00
2018-05-21T16:19:22.118Z,26656.00
2018-05-21T16:20:22.076Z,28256.00
2018-05-21T16:21:22.314Z,26816.00
2018-05-21T16:22:22.454Z,26240.00
2018-05-21T16:23:22.747Z,27072.00
2018-05-21T16:24:22.811Z,25440.00
2018-05-21T16:25:22.921Z,26176.00
2018-05-21T16:26:24.218Z,25600.00
2018-05-21T16:27:23.473Z,24384.00
2018-05-21T16:28:23.589Z,25568.00
2018-05-21T16:29:23.663Z,23648.00
2018-05-21T16:30:23.932Z,23840.00
2018-05-21T16:31:24.206Z,24448.00
2018-05-21T16:32:24.290Z,24480.00
2018-05-21T16:33:25.384Z,23488.00
2018-05-21T16:34:25.018Z,22528.00
2018-05-21T16:35:24.989Z,21792.00
2018-05-21T16:36:25.638Z,14828.00
2018-05-21T16:37:24.999Z,9760.00
2018-05-21T16:38:25.198Z,6216.00
2018-05-21T16:39:25.360Z,5768.00
2018-05-21T16:40:25.652Z,5596.00
2018-05-21T16:41:26.715Z,5596.00
2018-05-21T16:42:26.031Z,5576.00
2018-05-21T16:43:26.160Z,5596.00
2018-05-21T16:44:26.530Z,5852.00
2018-05-21T16:45:26.815Z,5644.00
2018-05-21T16:46:27.075Z,5476.00
2018-05-21T16:47:27.199Z,5448.00
2018-05-21T16:48:27.124Z,5424.00
2018-05-21T16:49:27.585Z,5400.00
2018-05-21T16:50:27.676Z,5396.00
2018-05-21T16:51:28.926Z,5360.00
2018-05-21T16:52:28.020Z,5328.00
2018-05-21T16:53:28.171Z,5308.00
2018-05-21T16:54:28.291Z,5288.00
2018-05-21T16:55:28.645Z,5216.00
2018-05-21T16:56:28.670Z,5084.00
2018-05-21T16:57:29.308Z,4964.00
2018-05-21T16:58:29.435Z,4728.00
2018-05-21T16:59:29.323Z,4476.00
2018-05-21T17:00:29.669Z,4372.00
2018-05-21T17:01:29.627Z,4284.00
2018-05-21T17:02:29.695Z,4272.00
2018-05-21T17:03:30.120Z,4320.00
2018-05-21T17:04:30.091Z,4348.00
2018-05-21T17:05:30.084Z,4420.00
2018-05-21T17:06:30.498Z,4444.00
2018-05-21T17:07:33.751Z,4484.00
2018-05-21T17:08:31.033Z,4512.00
2018-05-21T17:09:32.971Z,4532.00
2018-05-21T17:10:31.191Z,4532.00
2018-05-21T17:11:31.329Z,4524.00
2018-05-21T17:12:31.400Z,4468.00
2018-05-21T17:13:31.525Z,4468.00
2018-05-21T17:14:32.704Z,4492.00
2018-05-21T17:15:35.305Z,4484.00
2018-05-21T17:16:32.446Z,4464.00
2018-05-21T17:17:32.829Z,4436.00
2018-05-21T17:18:33.039Z,4408.00
2018-05-21T17:19:33.111Z,4364.00
2018-05-21T17:20:33.917Z,4324.00
2018-05-21T17:21:33.210Z,4276.00
2018-05-21T17:22:34.415Z,4208.00
2018-05-21T17:23:33.542Z,4144.00
2018-05-21T17:24:34.334Z,4076.00
2018-05-21T17:25:34.359Z,4016.00
2018-05-21T17:26:34.293Z,3980.00
2018-05-21T17:27:34.282Z,3956.00
2018-05-21T17:28:34.492Z,3932.00
2018-05-21T17:29:34.657Z,3916.00
2018-05-21T17:30:34.968Z,3888.00
2018-05-21T17:31:35.865Z,3864.00
2018-05-21T17:32:35.055Z,3832.00
2018-05-21T17:33:35.297Z,3816.00
2018-05-21T17:34:36.427Z,3788.00
2018-05-21T17:35:36.157Z,3752.00
2018-05-21T17:36:35.782Z,3720.00
2018-05-21T17:37:36.218Z,3692.00
2018-05-21T17:38:36.222Z,3656.00
2018-05-21T17:39:36.409Z,3616.00
2018-05-21T17:40:36.548Z,3568.00
2018-05-21T17:41:36.591Z,3520.00
2018-05-21T17:42:36.795Z,3476.00
2018-05-21T17:43:36.966Z,3432.00
2018-05-21T17:44:37.252Z,3380.00
2018-05-21T17:45:37.345Z,3328.00
2018-05-21T17:46:37.815Z,3256.00
2018-05-21T17:47:38.142Z,3188.00
2018-05-21T17:48:38.040Z,3132.00
2018-05-21T17:50:38.621Z,3040.00
2018-05-21T17:51:39.133Z,3028.00
2018-05-21T17:52:39.042Z,2944.00
2018-05-21T17:53:38.944Z,2892.00
2018-05-21T17:54:40.067Z,2832.00
2018-05-21T17:55:39.338Z,2788.00
2018-05-21T17:56:39.602Z,2740.00
2018-05-21T17:57:39.528Z,2696.00
2018-05-21T17:58:40.117Z,2684.00
2018-05-21T17:59:40.386Z,2664.00
2018-05-21T18:01:40.771Z,2616.00
2018-05-21T18:02:41.246Z,2584.00
2018-05-21T18:03:40.737Z,2532.00
2018-05-21T18:04:40.833Z,2496.00
2018-05-21T18:05:40.816Z,2460.00
2018-05-21T18:06:41.513Z,2436.00
2018-05-21T18:07:42.473Z,2420.00
2018-05-21T18:08:41.499Z,2396.00
2018-05-21T18:09:41.548Z,2400.00
2018-05-21T18:11:42.409Z,2312.00
2018-05-21T18:12:42.325Z,2272.00
2018-05-21T18:13:42.577Z,2236.00
2018-05-21T18:14:42.884Z,2188.00
2018-05-21T18:15:42.840Z,2124.00
2018-05-21T18:16:42.936Z,2068.00
2018-05-21T18:18:47.901Z,1940.00
2018-05-21T18:21:55.562Z,1816.00
2018-05-21T18:22:17.532Z,1744.00
2018-05-21T18:35:05.124Z,1128.00
2018-05-21T18:35:29.145Z,1096.00
2018-05-21T18:36:29.085Z,1056.00
2018-05-21T18:37:30.076Z,1020.00
2018-05-21T18:38:29.594Z,984.00
2018-05-21T18:39:30.561Z,952.00
2018-05-21T18:40:30.283Z,912.00
2018-05-21T18:41:30.825Z,876.00
2018-05-21T18:42:31.393Z,840.00
2018-05-21T18:43:31.604Z,804.00
2018-05-21T18:44:30.179Z,772.00
2018-05-21T18:45:29.780Z,740.00
2018-05-21T18:46:28.715Z,704.00
2018-05-21T18:47:33.275Z,672.00
2018-05-21T18:48:28.936Z,640.00
2018-05-21T18:49:30.119Z,604.00
2018-05-21T18:50:29.363Z,576.00
2018-05-21T18:51:34.514Z,548.00
2018-05-21T18:52:32.446Z,520.00
2018-05-21T20:07:03.860Z,0.00
2018-05-21T20:10:12.563Z,0.00
2018-05-21T20:11:08.466Z,0.00
2018-05-21T20:12:03.597Z,0.00
2018-05-21T20:13:01.975Z,0.00
2018-05-21T20:16:03.585Z,0.00
